Guide Rock, Nebraska
Current Conditions -  °F | °C
As of 3:53 PM on Saturday 25 Oct 2014 (Local Time) from KHSI Reporting Station
Clear Clear  
Wind Chill: 76°   Ceiling: Unl
Heat Index: 76°   Visibility: 10mi
Dew Point: 41°   Wind: 8mph
Humidity: 29%   Direction: 110°ESE
Pressure: 30.04"   Gusts: NA
Location:  40.07°N, 98.33°W
Report Text: KHSI 252053Z AUTO 11007KT 10SM CLR 24/05 A3004 RMK AO2 SLP164 T02440050 56022
Loading
Personal Weather Stations






























Interactive Weather Map
Tropical Storm Tracking
New forecast layout! Learn more

10-Day Weather Forecast

Advertisements
Track Severe Weather on mobile